Time;durP1;ratioP1;P1;durP2;ratioP2;P2;SDS_P1;SDS_P2;PMS_P1;PMS_P2;Temp;Humidity;BMP_temperature;BMP_pressure;BME280_temperature;BME280_humidity;BME280_pressure;Samples;Min_cycle;Max_cycle;Signal;HPM_P1;HPM_P2
2022/04/14 00:01:53;;;;;;;7.60;3.20;;;;;;;;;;5006184;28;20393;-72
2022/04/14 00:04:39;;;;;;;5.60;3.33;;;;;;;;;;5013665;28;20098;-62
2022/04/14 00:07:24;;;;;;;8.95;3.00;;;;;;;;;;5014392;28;20034;-64
2022/04/14 00:10:10;;;;;;;11.63;4.00;;;;;;;;;;5010137;28;20112;-67
2022/04/14 00:12:55;;;;;;;8.35;3.45;;;;;;;;;;4992532;28;20083;-64
2022/04/14 00:15:40;;;;;;;9.30;3.53;;;;;;;;;;5008309;28;20105;-64
2022/04/14 00:18:25;;;;;;;9.75;3.38;;;;;;;;;;4997844;28;20401;-65
2022/04/14 00:21:11;;;;;;;8.15;4.00;;;;;;;;;;5026113;28;20084;-61
2022/04/14 00:23:56;;;;;;;8.38;4.57;;;;;;;;;;5010728;28;20054;-63
2022/04/14 00:26:44;;;;;;;8.40;3.55;;;;;;;;;;5029590;28;20026;-66
2022/04/14 00:29:29;;;;;;;6.70;3.17;;;;;;;;;;5008652;28;20424;-65
2022/04/14 00:32:15;;;;;;;8.95;4.28;;;;;;;;;;5009170;28;20034;-67
2022/04/14 00:35:00;;;;;;;8.60;3.45;;;;;;;;;;5008430;28;20396;-66
2022/04/14 00:37:45;;;;;;;10.88;3.78;;;;;;;;;;5012619;28;20108;-65
2022/04/14 00:40:31;;;;;;;10.52;3.58;;;;;;;;;;4994857;28;20130;-69
2022/04/14 00:43:16;;;;;;;6.18;3.15;;;;;;;;;;5007340;28;20053;-67
2022/04/14 00:46:02;;;;;;;6.78;3.10;;;;;;;;;;4992314;28;20042;-67
2022/04/14 00:48:51;;;;;;;7.45;3.75;;;;;;;;;;4999647;28;20022;-68
2022/04/14 00:51:36;;;;;;;8.88;3.92;;;;;;;;;;5020270;28;20120;-71
2022/04/14 00:54:22;;;;;;;11.15;3.85;;;;;;;;;;5008618;28;20049;-69
2022/04/14 00:57:08;;;;;;;11.00;3.50;;;;;;;;;;5004144;28;20026;-67
2022/04/14 00:59:53;;;;;;;9.23;3.55;;;;;;;;;;5007735;28;20081;-68
2022/04/14 01:02:38;;;;;;;8.32;3.65;;;;;;;;;;5008718;28;20140;-66
2022/04/14 01:05:24;;;;;;;10.70;2.80;;;;;;;;;;5007759;28;20041;-65
2022/04/14 01:08:10;;;;;;;8.75;3.28;;;;;;;;;;5022714;28;20022;-65
2022/04/14 01:10:55;;;;;;;9.38;3.40;;;;;;;;;;5007495;28;20025;-65
2022/04/14 01:13:41;;;;;;;9.35;3.60;;;;;;;;;;5023624;28;20029;-64
2022/04/14 01:16:26;;;;;;;6.95;3.00;;;;;;;;;;4993892;28;20030;-73
2022/04/14 01:19:11;;;;;;;8.50;3.55;;;;;;;;;;5000294;28;20046;-65
2022/04/14 01:22:09;;;;;;;9.02;3.78;;;;;;;;;;5007163;28;20050;-66
2022/04/14 01:24:55;;;;;;;9.45;3.80;;;;;;;;;;5019352;28;20037;-64
2022/04/14 01:27:41;;;;;;;8.68;3.45;;;;;;;;;;5021375;28;20025;-65
2022/04/14 01:30:26;;;;;;;12.52;4.20;;;;;;;;;;5002662;28;20362;-65
2022/04/14 01:33:11;;;;;;;8.45;3.90;;;;;;;;;;4989932;28;20042;-64
2022/04/14 01:35:56;;;;;;;7.80;3.63;;;;;;;;;;5009483;28;20034;-71
2022/04/14 01:38:42;;;;;;;6.53;3.55;;;;;;;;;;5008303;28;20044;-63
2022/04/14 01:41:27;;;;;;;6.90;3.30;;;;;;;;;;5007049;28;20379;-63
2022/04/14 01:44:12;;;;;;;10.38;3.85;;;;;;;;;;5017236;28;20199;-62
2022/04/14 01:46:57;;;;;;;9.73;3.95;;;;;;;;;;5006468;28;20088;-63
2022/04/14 01:49:43;;;;;;;5.45;3.17;;;;;;;;;;5008550;28;20030;-63
2022/04/14 01:52:28;;;;;;;8.80;3.42;;;;;;;;;;5006935;28;20385;-62
2022/04/14 01:55:13;;;;;;;9.38;3.58;;;;;;;;;;5005090;28;20035;-72
2022/04/14 01:57:59;;;;;;;9.10;3.95;;;;;;;;;;5004236;28;20029;-65
2022/04/14 02:00:44;;;;;;;8.85;3.50;;;;;;;;;;5015129;28;20442;-64
2022/04/14 02:03:29;;;;;;;11.75;4.45;;;;;;;;;;5008691;28;20021;-66
2022/04/14 02:06:15;;;;;;;11.13;3.92;;;;;;;;;;5012619;28;20038;-68
2022/04/14 02:09:00;;;;;;;7.05;3.40;;;;;;;;;;5024427;28;20038;-64
2022/04/14 02:11:45;;;;;;;9.20;3.65;;;;;;;;;;5010343;28;20030;-63
2022/04/14 02:14:31;;;;;;;6.93;3.75;;;;;;;;;;5008127;28;20386;-60
2022/04/14 02:17:16;;;;;;;8.68;3.65;;;;;;;;;;5012223;28;20495;-62
2022/04/14 02:20:01;;;;;;;7.95;3.60;;;;;;;;;;5024978;28;20046;-63
2022/04/14 02:22:46;;;;;;;12.27;3.63;;;;;;;;;;5010429;28;20115;-61
2022/04/14 02:25:32;;;;;;;9.68;3.88;;;;;;;;;;5029965;28;20041;-61
2022/04/14 02:28:17;;;;;;;6.65;4.22;;;;;;;;;;5018175;28;20110;-63
2022/04/14 02:31:02;;;;;;;6.45;3.47;;;;;;;;;;5026064;28;20153;-63
2022/04/14 02:33:47;;;;;;;9.00;3.75;;;;;;;;;;5005023;28;20550;-73
2022/04/14 02:36:32;;;;;;;6.88;3.47;;;;;;;;;;5013861;28;20068;-74
2022/04/14 02:39:18;;;;;;;5.75;3.80;;;;;;;;;;5008430;28;20129;-73
2022/04/14 02:42:03;;;;;;;8.68;3.80;;;;;;;;;;4992751;28;20117;-73
2022/04/14 02:44:48;;;;;;;5.90;3.40;;;;;;;;;;5005201;28;20038;-72
2022/04/14 02:47:35;;;;;;;11.45;3.80;;;;;;;;;;4993372;28;20080;-74
2022/04/14 02:50:20;;;;;;;7.55;3.88;;;;;;;;;;5012278;28;20038;-65
2022/04/14 02:53:06;;;;;;;8.85;3.47;;;;;;;;;;4997158;28;20054;-68
2022/04/14 02:55:51;;;;;;;9.50;3.70;;;;;;;;;;5009914;28;20117;-71
2022/04/14 02:58:39;;;;;;;7.45;3.83;;;;;;;;;;5007786;28;20664;-68
2022/04/14 03:01:24;;;;;;;5.05;3.30;;;;;;;;;;5019538;28;20052;-69
2022/04/14 03:04:09;;;;;;;9.07;3.78;;;;;;;;;;5016666;28;20042;-69
2022/04/14 03:06:55;;;;;;;7.30;3.42;;;;;;;;;;4990812;28;20034;-73
2022/04/14 03:09:40;;;;;;;7.20;4.00;;;;;;;;;;5001516;28;20030;-67
2022/04/14 03:12:26;;;;;;;8.02;3.70;;;;;;;;;;5027622;28;20557;-67
2022/04/14 03:15:11;;;;;;;8.82;4.07;;;;;;;;;;4998843;28;20022;-67
2022/04/14 03:17:56;;;;;;;13.57;3.85;;;;;;;;;;5003927;28;20492;-67
2022/04/14 03:20:42;;;;;;;13.05;4.28;;;;;;;;;;5023077;28;20049;-65
2022/04/14 03:23:27;;;;;;;9.32;3.60;;;;;;;;;;5010828;28;20030;-67
2022/04/14 03:26:12;;;;;;;11.20;4.68;;;;;;;;;;5017193;28;20038;-68
2022/04/14 03:28:57;;;;;;;11.98;3.97;;;;;;;;;;5010834;28;20034;-70
2022/04/14 03:31:43;;;;;;;9.80;4.40;;;;;;;;;;5009798;28;20048;-68
2022/04/14 03:34:28;;;;;;;10.73;4.00;;;;;;;;;;5010374;28;20034;-68
2022/04/14 03:37:13;;;;;;;6.97;3.60;;;;;;;;;;5018147;28;20056;-68
2022/04/14 03:39:58;;;;;;;7.95;4.72;;;;;;;;;;5011222;28;20040;-67
2022/04/14 03:42:44;;;;;;;7.65;3.95;;;;;;;;;;5008748;28;20038;-69
2022/04/14 03:45:29;;;;;;;18.05;4.68;;;;;;;;;;5010793;28;20053;-68
2022/04/14 03:48:14;;;;;;;10.63;4.00;;;;;;;;;;5022393;28;20026;-70
2022/04/14 03:50:59;;;;;;;9.73;4.03;;;;;;;;;;5006416;28;20091;-69
2022/04/14 03:53:45;;;;;;;8.50;3.83;;;;;;;;;;4995246;28;20034;-69
2022/04/14 03:56:30;;;;;;;7.82;5.03;;;;;;;;;;5006814;28;20080;-69
2022/04/14 03:59:15;;;;;;;12.85;4.68;;;;;;;;;;5008444;28;20095;-69
2022/04/14 04:02:01;;;;;;;12.00;4.50;;;;;;;;;;5035541;28;20077;-71
2022/04/14 04:04:46;;;;;;;8.48;3.60;;;;;;;;;;5001740;28;20112;-66
2022/04/14 04:07:31;;;;;;;7.00;4.10;;;;;;;;;;5008522;28;20441;-66
2022/04/14 04:10:17;;;;;;;11.85;4.57;;;;;;;;;;4990512;28;20069;-67
2022/04/14 04:13:02;;;;;;;11.32;4.35;;;;;;;;;;4998456;28;20476;-64
2022/04/14 04:15:47;;;;;;;12.18;4.30;;;;;;;;;;5030034;28;20196;-63
2022/04/14 04:18:33;;;;;;;8.95;4.50;;;;;;;;;;5002476;28;20389;-65
2022/04/14 04:21:18;;;;;;;9.30;4.22;;;;;;;;;;5009200;28;20042;-69
2022/04/14 04:24:04;;;;;;;10.48;4.63;;;;;;;;;;5007045;28;20124;-62
2022/04/14 04:26:50;;;;;;;8.73;4.10;;;;;;;;;;5029726;28;20119;-64
2022/04/14 04:29:36;;;;;;;11.10;5.10;;;;;;;;;;5008336;28;20042;-62
2022/04/14 04:32:21;;;;;;;11.68;4.43;;;;;;;;;;5024047;28;20176;-62
2022/04/14 04:35:07;;;;;;;11.13;4.57;;;;;;;;;;5018111;28;20029;-63
2022/04/14 04:37:52;;;;;;;10.43;4.60;;;;;;;;;;5023289;28;20030;-61
2022/04/14 04:40:37;;;;;;;10.70;4.97;;;;;;;;;;4989731;28;20048;-73
2022/04/14 04:43:22;;;;;;;11.18;5.45;;;;;;;;;;4993434;28;20637;-62
2022/04/14 04:46:08;;;;;;;9.48;5.00;;;;;;;;;;5014920;28;20036;-61
2022/04/14 04:48:53;;;;;;;9.18;5.47;;;;;;;;;;5006299;28;20026;-60
2022/04/14 04:51:38;;;;;;;11.18;5.82;;;;;;;;;;5009597;28;20412;-62
2022/04/14 04:54:24;;;;;;;14.23;5.63;;;;;;;;;;5007451;28;20045;-60
2022/04/14 04:57:09;;;;;;;13.35;5.88;;;;;;;;;;5005409;28;20105;-62
2022/04/14 04:59:54;;;;;;;13.80;6.25;;;;;;;;;;5012865;28;20429;-67
2022/04/14 05:02:39;;;;;;;17.63;6.32;;;;;;;;;;5006551;28;20021;-66
2022/04/14 05:05:25;;;;;;;10.52;5.90;;;;;;;;;;4995815;28;20038;-64
2022/04/14 05:08:10;;;;;;;20.42;6.70;;;;;;;;;;5008722;28;20061;-64
2022/04/14 05:10:55;;;;;;;15.65;6.45;;;;;;;;;;5007515;28;20069;-64
2022/04/14 05:13:41;;;;;;;12.68;7.38;;;;;;;;;;5009036;28;20473;-65
2022/04/14 05:16:26;;;;;;;15.07;7.95;;;;;;;;;;5005408;28;20023;-65
2022/04/14 05:19:11;;;;;;;13.35;7.70;;;;;;;;;;5008770;28;20037;-69
2022/04/14 05:21:57;;;;;;;13.15;7.88;;;;;;;;;;5002229;28;20054;-70
2022/04/14 05:24:42;;;;;;;16.48;7.38;;;;;;;;;;5014754;28;20076;-68
2022/04/14 05:27:27;;;;;;;18.20;8.23;;;;;;;;;;4994109;28;20103;-69
2022/04/14 05:30:14;;;;;;;15.15;7.55;;;;;;;;;;5006896;28;20477;-69
2022/04/14 05:32:59;;;;;;;14.20;7.72;;;;;;;;;;5026709;28;20099;-68
2022/04/14 05:35:45;;;;;;;24.60;9.75;;;;;;;;;;5011975;28;20052;-71
2022/04/14 05:38:31;;;;;;;17.13;8.73;;;;;;;;;;5015463;28;20028;-69
2022/04/14 05:41:16;;;;;;;18.33;8.30;;;;;;;;;;4994873;28;20108;-71
2022/04/14 05:44:01;;;;;;;19.83;9.85;;;;;;;;;;5008675;28;20034;-69
2022/04/14 05:46:46;;;;;;;14.20;10.38;;;;;;;;;;4999712;28;20092;-69
2022/04/14 05:49:32;;;;;;;19.48;9.70;;;;;;;;;;5003072;28;20085;-68
2022/04/14 05:52:17;;;;;;;16.23;9.98;;;;;;;;;;5009276;28;20041;-71
2022/04/14 05:55:02;;;;;;;18.48;11.38;;;;;;;;;;5003400;28;20477;-69
2022/04/14 05:57:47;;;;;;;22.35;11.20;;;;;;;;;;5020797;28;20026;-62
2022/04/14 06:00:34;;;;;;;15.98;10.68;;;;;;;;;;5011683;28;20037;-62
2022/04/14 06:03:20;;;;;;;20.15;12.80;;;;;;;;;;5010932;28;20441;-62
2022/04/14 06:06:05;;;;;;;18.95;12.40;;;;;;;;;;5004702;28;20037;-63
2022/04/14 06:08:50;;;;;;;20.02;12.75;;;;;;;;;;5024516;28;20354;-64
2022/04/14 06:11:35;;;;;;;25.63;13.88;;;;;;;;;;5008350;28;20030;-64
2022/04/14 06:14:21;;;;;;;23.38;12.63;;;;;;;;;;5003960;28;20030;-68
2022/04/14 06:17:06;;;;;;;20.67;12.23;;;;;;;;;;5006678;28;20060;-67
2022/04/14 06:19:51;;;;;;;23.52;15.15;;;;;;;;;;5008539;28;20497;-68
2022/04/14 06:22:37;;;;;;;22.35;13.50;;;;;;;;;;4992238;28;20042;-70
2022/04/14 06:25:23;;;;;;;21.80;13.82;;;;;;;;;;5022266;28;20064;-69
2022/04/14 06:28:08;;;;;;;19.05;13.88;;;;;;;;;;5000782;28;20023;-67
2022/04/14 06:30:53;;;;;;;21.00;14.00;;;;;;;;;;4995619;28;20018;-65
2022/04/14 06:33:38;;;;;;;22.02;14.23;;;;;;;;;;5002962;28;20019;-65
2022/04/14 06:36:24;;;;;;;19.95;15.30;;;;;;;;;;5002173;28;20287;-66
2022/04/14 06:39:12;;;;;;;23.90;16.88;;;;;;;;;;5004722;28;20053;-63
2022/04/14 06:41:57;;;;;;;22.80;16.90;;;;;;;;;;5016824;28;20033;-65
2022/04/14 06:44:43;;;;;;;24.50;17.08;;;;;;;;;;5010744;28;20021;-63
2022/04/14 06:47:28;;;;;;;24.23;16.25;;;;;;;;;;5011417;28;20535;-64
2022/04/14 06:50:14;;;;;;;23.45;16.38;;;;;;;;;;5023405;28;20524;-66
2022/04/14 06:52:59;;;;;;;23.55;16.17;;;;;;;;;;5022381;28;20069;-78
2022/04/14 06:55:47;;;;;;;22.35;16.30;;;;;;;;;;5010814;28;20531;-77
2022/04/14 06:58:33;;;;;;;27.87;17.20;;;;;;;;;;5001586;28;20097;-78
2022/04/14 07:01:18;;;;;;;21.67;15.15;;;;;;;;;;5011519;28;20388;-79
2022/04/14 07:04:03;;;;;;;27.40;15.88;;;;;;;;;;5021245;28;20486;-80
2022/04/14 07:06:48;;;;;;;21.27;14.05;;;;;;;;;;5024700;28;20493;-64
2022/04/14 07:09:34;;;;;;;24.50;16.80;;;;;;;;;;5009141;28;20041;-71
2022/04/14 07:12:19;;;;;;;21.67;14.38;;;;;;;;;;5011027;28;20460;-76
2022/04/14 07:15:05;;;;;;;23.48;15.07;;;;;;;;;;5009880;28;20066;-70
2022/04/14 07:17:50;;;;;;;22.35;14.75;;;;;;;;;;5023033;28;20113;-68
2022/04/14 07:20:36;;;;;;;24.63;14.20;;;;;;;;;;5006392;28;20065;-68
2022/04/14 07:23:21;;;;;;;22.88;14.45;;;;;;;;;;5010751;28;20041;-69
2022/04/14 07:26:06;;;;;;;19.27;15.35;;;;;;;;;;5003617;28;20033;-66
2022/04/14 07:28:51;;;;;;;23.38;15.63;;;;;;;;;;5009533;28;20461;-65
2022/04/14 07:31:37;;;;;;;21.00;14.95;;;;;;;;;;5022796;28;20041;-69
2022/04/14 07:34:22;;;;;;;23.15;14.05;;;;;;;;;;5003955;28;20053;-70
2022/04/14 07:37:08;;;;;;;20.33;13.98;;;;;;;;;;5006309;28;20037;-68
2022/04/14 07:39:53;;;;;;;20.27;13.65;;;;;;;;;;5009424;28;20048;-70
2022/04/14 07:42:39;;;;;;;20.15;12.82;;;;;;;;;;5008057;28;20034;-66
2022/04/14 07:45:24;;;;;;;20.90;14.60;;;;;;;;;;5002042;28;20394;-64
2022/04/14 07:48:10;;;;;;;21.92;12.80;;;;;;;;;;5008595;28;20026;-69
2022/04/14 07:50:55;;;;;;;17.92;12.73;;;;;;;;;;5008828;28;20097;-69
2022/04/14 07:53:40;;;;;;;19.70;14.55;;;;;;;;;;4988953;28;20030;-70
2022/04/14 07:56:25;;;;;;;21.52;14.10;;;;;;;;;;4999147;28;20060;-69
2022/04/14 07:59:11;;;;;;;22.80;14.98;;;;;;;;;;5005403;28;20018;-69
2022/04/14 08:02:00;;;;;;;20.00;15.10;;;;;;;;;;5022440;28;20033;-67
2022/04/14 08:04:45;;;;;;;19.63;12.48;;;;;;;;;;5010415;28;20021;-68
2022/04/14 08:07:30;;;;;;;20.95;14.95;;;;;;;;;;5020558;28;20165;-70
2022/04/14 08:10:16;;;;;;;20.05;12.93;;;;;;;;;;4993955;28;20030;-70
2022/04/14 08:13:01;;;;;;;23.88;14.48;;;;;;;;;;5009977;28;20077;-68
2022/04/14 08:15:47;;;;;;;20.85;13.85;;;;;;;;;;4997514;28;20038;-69
2022/04/14 08:18:35;;;;;;;23.75;13.23;;;;;;;;;;4999618;28;20129;-68
2022/04/14 08:21:21;;;;;;;20.38;13.15;;;;;;;;;;4996169;28;20521;-72
2022/04/14 08:24:06;;;;;;;19.45;12.50;;;;;;;;;;5009841;28;20056;-64
2022/04/14 08:26:52;;;;;;;19.02;12.65;;;;;;;;;;5008051;28;20394;-66
2022/04/14 08:29:37;;;;;;;17.35;13.63;;;;;;;;;;5017608;28;20448;-65
2022/04/14 08:32:22;;;;;;;24.63;13.48;;;;;;;;;;5000041;28;20026;-65
2022/04/14 08:35:08;;;;;;;21.05;13.45;;;;;;;;;;5001013;28;20037;-66
2022/04/14 08:37:53;;;;;;;18.27;12.55;;;;;;;;;;5021918;28;20030;-65
2022/04/14 08:40:40;;;;;;;20.33;13.60;;;;;;;;;;4991595;28;20425;-71
2022/04/14 08:43:30;;;;;;;23.17;14.18;;;;;;;;;;5007208;28;20092;-70
2022/04/14 08:46:18;;;;;;;23.48;14.40;;;;;;;;;;5022540;28;20118;-70
2022/04/14 08:49:03;;;;;;;18.85;13.02;;;;;;;;;;5007498;28;20029;-70
2022/04/14 08:51:49;;;;;;;18.23;13.15;;;;;;;;;;5004326;28;20027;-70
2022/04/14 08:54:35;;;;;;;17.88;11.43;;;;;;;;;;5002213;28;20202;-71
2022/04/14 08:57:21;;;;;;;20.92;12.30;;;;;;;;;;5015990;28;20030;-76
2022/04/14 09:00:07;;;;;;;27.42;14.80;;;;;;;;;;5006727;28;20483;-71
2022/04/14 09:02:54;;;;;;;15.23;10.40;;;;;;;;;;5008949;28;20439;-71
2022/04/14 09:05:39;;;;;;;16.65;11.38;;;;;;;;;;5028283;28;20552;-70
2022/04/14 09:08:26;;;;;;;19.05;11.35;;;;;;;;;;5009369;28;20304;-68
2022/04/14 09:11:11;;;;;;;17.77;12.75;;;;;;;;;;5008296;28;20025;-68
2022/04/14 09:13:58;;;;;;;17.00;9.77;;;;;;;;;;4993528;28;20029;-68
2022/04/14 09:16:43;;;;;;;19.00;12.05;;;;;;;;;;5023910;28;20026;-71
2022/04/14 09:19:30;;;;;;;15.50;11.20;;;;;;;;;;5000916;28;20065;-74
2022/04/14 09:22:17;;;;;;;13.60;10.32;;;;;;;;;;5017819;28;20093;-72
2022/04/14 09:25:03;;;;;;;19.00;11.20;;;;;;;;;;5016103;28;20485;-71
2022/04/14 09:27:49;;;;;;;14.57;10.80;;;;;;;;;;5018380;28;20396;-72
2022/04/14 09:30:34;;;;;;;19.88;11.20;;;;;;;;;;5001952;28;20052;-72
2022/04/14 09:33:19;;;;;;;14.35;10.75;;;;;;;;;;5007839;28;20060;-71
2022/04/14 09:36:06;;;;;;;19.58;10.65;;;;;;;;;;5002000;28;20755;-68
2022/04/14 09:38:53;;;;;;;20.30;10.95;;;;;;;;;;5020938;28;20034;-65
2022/04/14 09:41:40;;;;;;;14.27;9.63;;;;;;;;;;5007143;28;20042;-66
2022/04/14 09:44:25;;;;;;;16.77;9.77;;;;;;;;;;5021918;28;20034;-65
2022/04/14 09:47:10;;;;;;;15.27;10.70;;;;;;;;;;5009414;28;20269;-66
2022/04/14 09:49:56;;;;;;;16.73;9.15;;;;;;;;;;5008288;28;20026;-69
2022/04/14 09:52:56;;;;;;;18.65;10.88;;;;;;;;;;5005281;28;20057;-70
2022/04/14 09:55:51;;;;;;;15.80;10.32;;;;;;;;;;5011350;28;20053;-71
2022/04/14 09:58:36;;;;;;;13.68;10.48;;;;;;;;;;4990404;28;20041;-71
2022/04/14 10:01:21;;;;;;;13.25;8.95;;;;;;;;;;5005166;28;20026;-71
2022/04/14 10:04:10;;;;;;;16.05;10.23;;;;;;;;;;5022056;28;20140;-72
2022/04/14 10:07:05;;;;;;;16.20;10.68;;;;;;;;;;5027576;28;20037;-70
2022/04/14 10:09:51;;;;;;;13.65;8.80;;;;;;;;;;5021239;28;20053;-75
2022/04/14 10:12:36;;;;;;;15.25;9.25;;;;;;;;;;5007001;28;20105;-67
2022/04/14 10:15:21;;;;;;;15.20;10.88;;;;;;;;;;5003176;28;20017;-66
2022/04/14 10:18:08;;;;;;;14.68;9.40;;;;;;;;;;5000303;28;20048;-69
2022/04/14 10:20:53;;;;;;;16.42;10.38;;;;;;;;;;5005679;28;20108;-69
2022/04/14 10:23:38;;;;;;;16.05;9.73;;;;;;;;;;5023663;28;20038;-66
2022/04/14 10:26:25;;;;;;;16.27;9.88;;;;;;;;;;5004970;28;20033;-66
2022/04/14 10:29:12;;;;;;;15.90;11.38;;;;;;;;;;5011041;28;20037;-64
2022/04/14 10:31:58;;;;;;;16.60;8.73;;;;;;;;;;5023785;28;20375;-74
2022/04/14 10:34:44;;;;;;;13.98;8.77;;;;;;;;;;5011775;28;20025;-72
2022/04/14 10:37:32;;;;;;;14.05;9.00;;;;;;;;;;5022423;28;20052;-74
2022/04/14 10:40:17;;;;;;;15.10;9.23;;;;;;;;;;5006676;28;20045;-71
2022/04/14 10:43:07;;;;;;;13.43;7.70;;;;;;;;;;5009880;28;20149;-69
2022/04/14 10:45:54;;;;;;;13.45;8.27;;;;;;;;;;5005810;28;20034;-69
2022/04/14 10:48:40;;;;;;;17.73;8.90;;;;;;;;;;5006065;28;20128;-63
2022/04/14 10:51:29;;;;;;;14.77;8.18;;;;;;;;;;5011527;28;20418;-63
2022/04/14 10:54:18;;;;;;;;;;;;;;;;;;5010384;28;20033;-60
2022/04/14 10:57:04;;;;;;;19.23;10.80;;;;;;;;;;5006892;28;20350;-61
2022/04/14 10:59:50;;;;;;;16.65;12.32;;;;;;;;;;5017444;28;20029;-61
2022/04/14 11:02:54;;;;;;;21.98;12.38;;;;;;;;;;5009570;28;20042;-60
2022/04/14 11:05:44;;;;;;;13.15;10.50;;;;;;;;;;4998434;28;20017;-65
2022/04/14 11:08:31;;;;;;;13.93;9.70;;;;;;;;;;5011281;28;20052;-68
2022/04/14 11:11:17;;;;;;;16.77;12.48;;;;;;;;;;5022777;28;20030;-72
2022/04/14 11:14:06;;;;;;;16.25;11.10;;;;;;;;;;5022543;28;20489;-72
2022/04/14 11:16:52;;;;;;;;;;;;;;;;;;5007426;28;20065;-70
2022/04/14 11:19:37;;;;;;;19.33;11.75;;;;;;;;;;5003649;28;19963;-69
2022/04/14 11:22:23;;;;;;;16.90;12.52;;;;;;;;;;5001122;28;20038;-68
2022/04/14 11:25:28;;;;;;;16.67;9.85;;;;;;;;;;5003675;28;20037;-67
2022/04/14 11:28:17;;;;;;;17.77;11.48;;;;;;;;;;5008090;28;20018;-60
2022/04/14 11:31:18;;;;;;;17.42;10.90;;;;;;;;;;5024831;28;20034;-61
2022/04/14 11:34:03;;;;;;;17.95;11.32;;;;;;;;;;5004111;28;20054;-60
2022/04/14 11:36:50;;;;;;;19.50;11.05;;;;;;;;;;5021384;28;20029;-62
2022/04/14 11:39:36;;;;;;;16.35;10.50;;;;;;;;;;5019821;28;20041;-61
2022/04/14 11:42:21;;;;;;;14.43;10.15;;;;;;;;;;5009644;28;20028;-65
2022/04/14 11:45:07;;;;;;;17.75;10.27;;;;;;;;;;5010122;28;20018;-66
2022/04/14 11:47:55;;;;;;;12.63;8.82;;;;;;;;;;4989719;28;20354;-76
2022/04/14 11:50:40;;;;;;;18.92;11.50;;;;;;;;;;5001230;28;20042;-75
2022/04/14 11:53:28;;;;;;;17.63;11.65;;;;;;;;;;5008533;28;20053;-71
2022/04/14 11:56:20;;;;;;;17.40;12.63;;;;;;;;;;4999619;28;20455;-72
2022/04/14 11:59:08;;;;;;;17.48;11.05;;;;;;;;;;5021864;28;20034;-72
2022/04/14 12:01:53;;;;;;;20.23;10.07;;;;;;;;;;5008525;28;20473;-60
2022/04/14 12:04:52;;;;;;;21.23;12.05;;;;;;;;;;5009136;28;20466;-74
2022/04/14 12:07:38;;;;;;;14.07;9.60;;;;;;;;;;4997931;28;20038;-75
2022/04/14 12:10:23;;;;;;;23.40;11.10;;;;;;;;;;5005279;28;20569;-75
2022/04/14 12:13:09;;;;;;;17.10;10.80;;;;;;;;;;5010031;28;20029;-76
2022/04/14 12:16:01;;;;;;;18.85;11.52;;;;;;;;;;5003909;28;20037;-77
2022/04/14 12:18:50;;;;;;;19.35;13.95;;;;;;;;;;5009496;28;20018;-75
2022/04/14 12:21:35;;;;;;;18.35;12.18;;;;;;;;;;5017181;28;20452;-64
2022/04/14 12:24:22;;;;;;;15.60;11.57;;;;;;;;;;5008561;28;20026;-69
2022/04/14 12:27:07;;;;;;;19.80;11.57;;;;;;;;;;5000875;28;20040;-69
2022/04/14 12:29:56;;;;;;;21.85;13.70;;;;;;;;;;4997894;28;20041;-69
2022/04/14 12:32:45;;;;;;;;;;;;;;;;;;5003351;28;20030;-70
2022/04/14 12:35:31;;;;;;;;;;;;;;;;;;5014003;28;19910;-71
2022/04/14 12:38:26;;;;;;;16.67;11.95;;;;;;;;;;5007545;28;20363;-75
2022/04/14 12:41:19;;;;;;;19.17;11.35;;;;;;;;;;5008997;28;20032;-61
2022/04/14 12:44:05;;;;;;;22.45;14.13;;;;;;;;;;5026403;28;20036;-69
2022/04/14 12:46:51;;;;;;;18.50;11.85;;;;;;;;;;5007311;28;20128;-67
2022/04/14 12:49:36;;;;;;;16.40;10.82;;;;;;;;;;5008891;28;20033;-68
2022/04/14 12:52:21;;;;;;;16.35;11.05;;;;;;;;;;5004118;28;20425;-68
2022/04/14 12:55:07;;;;;;;17.48;11.13;;;;;;;;;;5008888;28;20041;-68
2022/04/14 12:58:08;;;;;;;17.60;11.30;;;;;;;;;;5006637;28;20029;-70
2022/04/14 13:01:05;;;;;;;18.25;11.35;;;;;;;;;;5021018;28;20030;-68
2022/04/14 13:03:50;;;;;;;17.92;12.40;;;;;;;;;;5013732;28;20034;-69
2022/04/14 13:06:36;;;;;;;17.63;12.45;;;;;;;;;;5023323;28;20396;-68
2022/04/14 13:09:21;;;;;;;16.17;11.98;;;;;;;;;;5021233;28;20035;-67
2022/04/14 13:12:07;;;;;;;22.75;14.52;;;;;;;;;;5005725;28;20030;-68
2022/04/14 13:14:52;;;;;;;20.55;13.23;;;;;;;;;;5006951;28;20030;-66
2022/04/14 13:17:38;;;;;;;22.73;13.00;;;;;;;;;;4992926;28;20533;-74
2022/04/14 13:20:34;;;;;;;14.85;11.68;;;;;;;;;;5003773;28;20485;-73
2022/04/14 13:23:20;;;;;;;20.55;11.65;;;;;;;;;;5017995;28;20025;-74
2022/04/14 13:26:05;;;;;;;19.65;13.82;;;;;;;;;;5007773;28;20104;-72
2022/04/14 13:28:50;;;;;;;18.30;14.52;;;;;;;;;;5006298;28;20117;-75
2022/04/14 13:31:36;;;;;;;18.90;14.75;;;;;;;;;;5005195;28;20065;-76
2022/04/14 13:34:21;;;;;;;16.05;13.45;;;;;;;;;;5006539;28;20485;-67
2022/04/14 13:37:06;;;;;;;19.85;11.77;;;;;;;;;;5008851;28;20468;-72
2022/04/14 13:39:51;;;;;;;23.55;15.32;;;;;;;;;;4994898;28;20033;-72
2022/04/14 13:42:38;;;;;;;18.38;14.32;;;;;;;;;;5017506;28;20376;-74
2022/04/14 13:45:23;;;;;;;24.85;17.55;;;;;;;;;;4998594;28;20057;-71
2022/04/14 13:48:08;;;;;;;20.92;13.95;;;;;;;;;;5000626;28;20359;-74
2022/04/14 13:50:54;;;;;;;19.50;14.98;;;;;;;;;;5008603;28;20038;-73
2022/04/14 13:53:39;;;;;;;22.10;14.30;;;;;;;;;;5040860;28;20389;-67
2022/04/14 13:56:24;;;;;;;19.40;14.00;;;;;;;;;;5011499;28;20038;-70
2022/04/14 13:59:10;;;;;;;17.02;12.32;;;;;;;;;;5011725;28;20033;-71
2022/04/14 14:01:58;;;;;;;17.90;13.23;;;;;;;;;;5007852;28;20026;-71
2022/04/14 14:04:43;;;;;;;18.85;14.68;;;;;;;;;;5012693;28;20091;-69
2022/04/14 14:07:29;;;;;;;17.05;13.95;;;;;;;;;;5006877;28;20385;-68
2022/04/14 14:10:14;;;;;;;21.35;13.13;;;;;;;;;;5009543;28;20289;-66
2022/04/14 14:13:00;;;;;;;20.83;15.23;;;;;;;;;;5020038;28;20056;-75
2022/04/14 14:15:45;;;;;;;26.75;14.77;;;;;;;;;;5017606;28;20598;-74
2022/04/14 14:18:30;;;;;;;16.67;11.98;;;;;;;;;;5012572;28;20026;-73
2022/04/14 14:21:16;;;;;;;18.58;14.95;;;;;;;;;;5008455;28;20056;-74
2022/04/14 14:24:01;;;;;;;16.42;13.15;;;;;;;;;;5016680;28;20063;-73
2022/04/14 14:26:46;;;;;;;14.75;11.43;;;;;;;;;;5018659;28;20027;-68
2022/04/14 14:29:32;;;;;;;15.65;12.30;;;;;;;;;;4993048;28;20041;-63
2022/04/14 14:32:17;;;;;;;18.40;13.50;;;;;;;;;;5016048;28;20117;-71
2022/04/14 14:35:03;;;;;;;16.02;10.95;;;;;;;;;;5018933;28;20033;-69
2022/04/14 14:37:48;;;;;;;16.92;12.32;;;;;;;;;;5011116;28;20044;-68
2022/04/14 14:40:34;;;;;;;21.58;13.38;;;;;;;;;;5012203;28;20052;-68
2022/04/14 14:43:19;;;;;;;17.27;12.80;;;;;;;;;;5006591;28;20448;-69
2022/04/14 14:46:05;;;;;;;20.63;14.70;;;;;;;;;;5022981;28;20088;-69
2022/04/14 14:48:50;;;;;;;16.80;11.82;;;;;;;;;;5004757;28;20030;-72
2022/04/14 14:51:36;;;;;;;17.83;12.25;;;;;;;;;;4992245;28;20371;-72
2022/04/14 14:54:21;;;;;;;15.98;11.15;;;;;;;;;;5018121;28;20496;-72
2022/04/14 14:57:06;;;;;;;18.50;13.32;;;;;;;;;;5025691;28;20025;-73
2022/04/14 14:59:52;;;;;;;23.20;14.35;;;;;;;;;;5011527;28;20485;-72
2022/04/14 15:02:38;;;;;;;17.77;14.27;;;;;;;;;;5008601;28;20493;-72
2022/04/14 15:05:23;;;;;;;16.83;12.13;;;;;;;;;;5011516;28;20080;-68
2022/04/14 15:08:08;;;;;;;16.38;13.35;;;;;;;;;;5021962;28;20381;-72
2022/04/14 15:10:54;;;;;;;19.50;12.73;;;;;;;;;;5010953;28;20026;-70
2022/04/14 15:13:39;;;;;;;18.90;12.15;;;;;;;;;;5023373;28;20112;-67
2022/04/14 15:16:24;;;;;;;22.20;15.65;;;;;;;;;;5013994;28;20037;-67
2022/04/14 15:19:10;;;;;;;17.33;13.40;;;;;;;;;;5031495;28;20030;-65
2022/04/14 15:21:55;;;;;;;17.02;11.73;;;;;;;;;;5010792;28;20077;-67
2022/04/14 15:24:40;;;;;;;21.80;16.73;;;;;;;;;;5003406;28;20454;-65
2022/04/14 15:27:25;;;;;;;15.27;13.18;;;;;;;;;;5016992;28;20033;-67
2022/04/14 15:30:11;;;;;;;19.17;13.50;;;;;;;;;;5006789;28;20378;-68
2022/04/14 15:32:56;;;;;;;16.77;12.82;;;;;;;;;;5021462;28;20032;-69
2022/04/14 15:35:41;;;;;;;20.17;13.18;;;;;;;;;;4992408;28;20046;-70
2022/04/14 15:38:26;;;;;;;19.83;11.05;;;;;;;;;;5005008;28;20030;-68
2022/04/14 15:41:12;;;;;;;17.65;11.65;;;;;;;;;;4997737;28;20030;-67
2022/04/14 15:43:57;;;;;;;17.15;14.13;;;;;;;;;;5024065;28;20033;-63
2022/04/14 15:46:43;;;;;;;19.05;13.88;;;;;;;;;;5000689;28;20025;-74
2022/04/14 15:49:28;;;;;;;19.30;14.55;;;;;;;;;;5009311;28;20038;-72
2022/04/14 15:52:14;;;;;;;16.63;13.98;;;;;;;;;;5026474;28;20156;-72
2022/04/14 15:55:00;;;;;;;18.75;12.98;;;;;;;;;;5021933;28;20513;-71
2022/04/14 15:57:46;;;;;;;16.73;13.25;;;;;;;;;;5006692;28;20028;-74
2022/04/14 16:00:31;;;;;;;16.80;13.07;;;;;;;;;;5009302;28;20030;-74
2022/04/14 16:03:17;;;;;;;15.63;11.27;;;;;;;;;;5010610;28;20142;-65
2022/04/14 16:06:04;;;;;;;18.40;13.90;;;;;;;;;;5008965;28;20473;-65
2022/04/14 16:08:49;;;;;;;18.00;13.88;;;;;;;;;;5022510;28;20042;-65
2022/04/14 16:14:38;;;;;;;18.75;12.85;;;;;;;;;;5010890;28;20048;-64
2022/04/14 16:17:23;;;;;;;17.92;12.45;;;;;;;;;;5008725;28;20048;-64
2022/04/14 16:20:09;;;;;;;20.60;13.13;;;;;;;;;;5014710;28;20249;-77